Terminal Aerodrome Forecast
Issued by NWS

Home | Current Version | Previous Version | Text Only | Print | Product List | Glossary Off
Versions: 1 2 3 4 5 6 7 8 9 10 11 12 13 14 15 16

000
FTUS43 KFGF 302300
TAFBJI
TAF
KBJI 302328Z 3100/3124 VRB03KT P6SM OVC022
     FM310800 13008KT P6SM BKN015
     FM311500 16013KT P6SM -SHRA BKN040
     FM312000 18006KT P6SM -TSRA BKN025CB=

USA.gov is the U.S. government's official web portal to all federal, state and local government web resources and services.